Time;durP1;ratioP1;P1;durP2;ratioP2;P2;SDS_P1;SDS_P2;PMS_P1;PMS_P2;Temp;Humidity;BMP_temperature;BMP_pressure;BME280_temperature;BME280_humidity;BME280_pressure;Samples;Min_cycle;Max_cycle;Signal;HPM_P1;HPM_P2
2022/07/25 00:02:27;;;;;;;5.40;3.98;;;;;;;13.07;76.29;99189.55;2173510;81;20941;-82
2022/07/25 00:05:28;;;;;;;5.10;4.28;;;;;;;12.99;76.23;99190.77;2173383;81;21276;-81
2022/07/25 00:08:28;;;;;;;4.28;3.80;;;;;;;12.94;76.23;99195.52;2173157;81;20961;-81
2022/07/25 00:11:29;;;;;;;7.12;4.50;;;;;;;12.89;76.50;99185.01;2173090;81;20944;-80
2022/07/25 00:17:33;;;;;;;7.70;4.00;;;;;;;12.83;76.97;99183.65;2171723;82;21304;-81
2022/07/25 00:20:34;;;;;;;6.85;4.85;;;;;;;12.80;77.05;99177.51;2173240;81;20960;-81
2022/07/25 00:23:34;;;;;;;11.22;4.37;;;;;;;12.79;77.67;99179.68;2173277;81;20897;-80
2022/07/25 00:26:34;;;;;;;5.58;4.25;;;;;;;12.79;78.09;99183.61;2173331;81;21008;-80
2022/07/25 00:29:35;;;;;;;4.40;4.00;;;;;;;12.75;77.72;99191.45;2173342;81;20882;-81
2022/07/25 00:32:35;;;;;;;7.10;3.50;;;;;;;12.69;77.56;99185.28;2173446;81;20878;-81
2022/07/25 00:35:36;;;;;;;7.17;3.80;;;;;;;12.63;77.34;99178.24;2173587;81;20949;-81
2022/07/25 00:38:36;;;;;;;6.17;4.20;;;;;;;12.55;77.44;99169.87;2173265;81;20976;-80
2022/07/25 00:41:36;;;;;;;14.55;4.05;;;;;;;12.50;77.73;99172.45;2173356;81;20933;-81
2022/07/25 00:44:37;;;;;;;7.58;3.67;;;;;;;12.54;78.29;99172.05;2173384;82;20921;-82
2022/07/25 00:47:37;;;;;;;8.40;4.20;;;;;;;12.55;78.16;99175.98;2173139;81;21336;-83
2022/07/25 00:50:38;;;;;;;4.30;3.90;;;;;;;12.52;78.19;99175.96;2173374;81;20921;-81
2022/07/25 00:53:38;;;;;;;4.37;3.58;;;;;;;12.45;77.82;99168.91;2173691;81;20904;-80
2022/07/25 00:56:38;;;;;;;5.92;3.58;;;;;;;12.40;77.96;99180.65;2172493;81;21364;-81
2022/07/25 00:59:39;;;;;;;3.87;3.50;;;;;;;12.40;78.24;99181.95;2171270;80;20941;-81
2022/07/25 01:02:39;;;;;;;7.90;3.67;;;;;;;12.36;78.18;99178.86;2171103;81;20945;-82
2022/07/25 01:05:40;;;;;;;5.08;3.50;;;;;;;12.39;78.56;99172.78;2170990;81;21371;-79
2022/07/25 01:08:40;;;;;;;5.20;3.50;;;;;;;12.37;78.27;99177.13;2172564;81;20914;-81
2022/07/25 01:11:40;;;;;;;5.05;4.30;;;;;;;12.31;78.66;99172.70;2171740;81;20948;-83
2022/07/25 01:14:41;;;;;;;5.72;3.77;;;;;;;12.33;78.80;99172.72;2171283;81;21297;-82
2022/07/25 01:17:41;;;;;;;4.78;3.77;;;;;;;12.32;78.34;99168.34;2171274;81;20973;-82
2022/07/25 01:20:42;;;;;;;4.47;3.95;;;;;;;12.23;78.08;99169.56;2171105;81;20993;-81
2022/07/25 01:23:42;;;;;;;5.00;3.67;;;;;;;12.13;78.33;99165.50;2171310;81;21273;-80
2022/07/25 01:26:42;;;;;;;6.90;3.47;;;;;;;12.15;79.02;99164.68;2171122;82;20905;-80
2022/07/25 01:29:43;;;;;;;6.62;3.70;;;;;;;12.17;79.10;99159.91;2171114;81;20968;-81
2022/07/25 01:32:45;;;;;;;9.03;4.08;;;;;;;12.12;78.85;99159.83;2171060;81;21305;-82
2022/07/25 01:35:46;;;;;;;4.50;3.75;;;;;;;12.07;79.09;99165.44;2171120;82;21277;-83
2022/07/25 01:38:46;;;;;;;7.87;3.50;;;;;;;12.06;79.48;99164.99;2170958;81;20913;-82
2022/07/25 01:41:46;;;;;;;4.90;3.70;;;;;;;12.07;79.17;99165.88;2171169;81;20989;-83
2022/07/25 01:44:47;;;;;;;5.15;3.33;;;;;;;12.00;78.84;99161.00;2170969;81;20961;-83
2022/07/25 01:47:47;;;;;;;4.30;3.83;;;;;;;11.96;78.96;99161.83;2170660;81;20969;-83
2022/07/25 01:50:48;;;;;;;5.17;3.20;;;;;;;11.96;78.99;99164.88;2170919;81;20905;-83
2022/07/25 01:53:48;;;;;;;4.33;3.60;;;;;;;11.91;79.09;99158.71;2171087;82;21309;-81
2022/07/25 01:56:49;;;;;;;3.50;3.20;;;;;;;11.88;79.15;99156.94;2170812;81;20933;-79
2022/07/25 01:59:49;;;;;;;5.92;3.40;;;;;;;11.84;79.03;99153.84;2172058;81;20960;-80
2022/07/25 02:03:28;;;;;;;11.77;3.67;;;;;;;11.82;79.57;99150.76;2172590;81;20910;-82
2022/07/25 02:05:50;;;;;;;15.35;3.95;;;;;;;11.85;79.54;99150.37;2171595;81;21265;-81
2022/07/25 02:08:50;;;;;;;6.55;3.60;;;;;;;11.87;79.60;99143.84;2170884;81;20952;-83
2022/07/25 02:11:51;;;;;;;8.28;3.60;;;;;;;11.82;79.13;99146.84;2170758;81;20961;-83
2022/07/25 02:14:51;;;;;;;6.58;4.12;;;;;;;11.78;79.34;99152.03;2171025;81;21339;-83
2022/07/25 02:17:52;;;;;;;4.75;3.40;;;;;;;11.83;79.60;99153.82;2171061;81;20933;-83
2022/07/25 02:20:52;;;;;;;5.70;3.40;;;;;;;11.78;79.12;99150.72;2171114;81;20981;-84
2022/07/25 02:23:52;;;;;;;3.83;3.53;;;;;;;11.66;79.03;99152.28;2171069;81;21309;-83
2022/07/25 02:26:53;;;;;;;3.70;3.40;;;;;;;11.54;79.41;99151.70;2170858;81;20906;-83
2022/07/25 02:29:53;;;;;;;10.77;3.43;;;;;;;11.49;79.66;99151.64;2171255;81;20874;-84
2022/07/25 02:32:53;;;;;;;6.20;3.03;;;;;;;11.48;79.66;99156.42;2171283;81;21265;-84
2022/07/25 02:35:54;;;;;;;4.78;3.80;;;;;;;11.46;79.62;99150.72;2170982;81;20953;-84
2022/07/25 02:38:54;;;;;;;3.97;3.67;;;;;;;11.45;80.08;99143.31;2171295;81;20886;-83
2022/07/25 02:41:54;;;;;;;6.07;3.90;;;;;;;11.46;80.11;99143.75;2171274;81;21261;-83
2022/07/25 02:44:55;;;;;;;4.35;3.58;;;;;;;11.44;80.08;99146.78;2171263;81;20989;-83
2022/07/25 02:47:55;;;;;;;5.75;3.42;;;;;;;12.66;87.07;99142.91;2171445;81;21033;-84
2022/07/25 02:50:56;;;;;;;4.78;3.02;;;;;;;14.37;83.44;99137.70;2171454;80;21285;-82
2022/07/25 02:53:56;;;;;;;3.30;3.02;;;;;;;15.51;78.42;99137.64;2171224;81;20917;-83
2022/07/25 02:56:56;;;;;;;5.75;3.22;;;;;;;16.17;74.76;99131.69;2172711;81;20957;-83
2022/07/25 02:59:57;;;;;;;3.67;3.00;;;;;;;16.79;72.42;99129.98;2173598;81;21328;-84
2022/07/25 03:02:57;;;;;;;3.35;3.05;;;;;;;17.28;69.90;99119.39;2173436;81;20929;-83
2022/07/25 03:06:00;;;;;;;10.63;3.80;;;;;;;17.46;67.46;99125.37;2162802;82;20956;-83
2022/07/25 03:09:00;;;;;;;6.15;3.25;;;;;;;17.44;65.25;99127.61;2173154;81;20913;-83
2022/07/25 03:12:00;;;;;;;3.92;2.80;;;;;;;17.34;64.37;99126.83;2173490;81;20886;-83
2022/07/25 03:15:01;;;;;;;5.97;3.08;;;;;;;17.28;64.70;99125.55;2173251;81;20957;-82
2022/07/25 03:18:01;;;;;;;4.90;2.90;;;;;;;17.45;64.43;99130.67;2172792;81;21411;-83
2022/07/25 03:21:02;;;;;;;3.98;2.70;;;;;;;17.72;63.56;99126.41;2172897;81;20926;-83
2022/07/25 03:24:02;;;;;;;80.00;11.60;;;;;;;17.99;62.56;99125.63;2173574;81;20960;-82
2022/07/25 03:27:02;;;;;;;5.40;3.35;;;;;;;18.02;60.89;99125.14;2173582;81;20886;-81
2022/07/25 03:30:03;;;;;;;7.67;3.42;;;;;;;17.98;61.09;99122.56;2173738;81;20897;-83
2022/07/25 03:33:03;;;;;;;3.80;3.20;;;;;;;17.90;60.20;99123.11;2173608;81;20961;-83
2022/07/25 03:36:04;;;;;;;3.65;3.00;;;;;;;17.64;59.38;99123.41;2173799;81;20928;-83
2022/07/25 03:39:04;;;;;;;13.05;4.12;;;;;;;17.36;59.60;99128.13;2173775;81;21620;-82
2022/07/25 03:42:04;;;;;;;3.45;3.10;;;;;;;17.22;59.69;99120.78;2172693;81;20956;-83
2022/07/25 03:45:05;;;;;;;9.10;3.10;;;;;;;17.10;59.59;99121.34;2172639;81;20886;-81
2022/07/25 03:48:05;;;;;;;5.58;3.25;;;;;;;17.04;59.95;99127.98;2171997;81;21079;-82
2022/07/25 03:51:06;;;;;;;2.85;2.60;;;;;;;16.99;59.95;99125.84;2171892;81;20910;-83
2022/07/25 03:54:12;;;;;;;5.47;2.90;;;;;;;16.96;59.85;99121.91;2172094;81;20917;-82
2022/07/25 03:57:06;;;;;;;4.90;3.00;;;;;;;16.98;60.32;99110.03;2170840;81;20953;-82
2022/07/25 04:00:08;;;;;;;32.50;6.65;;;;;;;17.33;60.43;99112.30;2169969;81;20988;-82
2022/07/25 04:03:07;;;;;;;13.75;4.42;;;;;;;17.56;60.28;99111.63;2171023;81;21138;-81
2022/07/25 04:06:08;;;;;;;6.05;2.98;;;;;;;17.66;59.99;99105.38;2171586;80;20953;-83
2022/07/25 04:09:08;;;;;;;3.33;2.83;;;;;;;17.85;60.08;99103.81;2171536;81;20933;-82
2022/07/25 04:12:08;;;;;;;3.25;2.80;;;;;;;17.96;59.55;99105.42;2170800;81;21534;-84
2022/07/25 04:15:09;;;;;;;26.27;4.28;;;;;;;17.77;59.37;99103.47;2170946;80;20949;-82
2022/07/25 04:18:09;;;;;;;5.75;2.98;;;;;;;17.60;59.89;99104.55;2170406;81;21011;-82
2022/07/25 04:21:10;;;;;;;3.50;3.20;;;;;;;17.70;60.62;99107.08;2170377;81;20944;-83
2022/07/25 04:24:10;;;;;;;3.00;2.70;;;;;;;18.11;60.40;99110.94;2170382;81;20945;-82
2022/07/25 04:27:11;;;;;;;3.00;2.80;;;;;;;18.44;60.13;99107.81;2170245;81;20950;-82
2022/07/25 04:30:11;;;;;;;76.85;8.30;;;;;;;18.72;59.52;99106.08;2169558;81;20960;-82
2022/07/25 04:33:11;;;;;;;3.85;3.15;;;;;;;18.93;58.82;99112.77;2171143;81;21265;-82
2022/07/25 04:36:12;;;;;;;5.87;3.00;;;;;;;18.87;59.18;99113.75;2170298;81;20961;-82
2022/07/25 04:39:12;;;;;;;6.85;3.00;;;;;;;18.99;58.98;99111.34;2169961;81;20886;-81
2022/07/25 04:42:13;;;;;;;11.12;3.05;;;;;;;19.28;59.29;99113.48;2169628;80;20957;-81
2022/07/25 04:45:13;;;;;;;8.68;3.12;;;;;;;19.69;58.33;99106.08;2169460;81;21004;-82
2022/07/25 04:48:13;;;;;;;10.32;3.33;;;;;;;20.06;58.22;99107.52;2169690;81;21000;-81
2022/07/25 04:51:14;;;;;;;5.22;3.05;;;;;;;20.03;57.97;99112.43;2169812;81;21103;-82
2022/07/25 04:54:14;;;;;;;18.87;3.75;;;;;;;19.98;58.67;99113.44;2169215;81;20929;-81
2022/07/25 04:57:15;;;;;;;10.18;3.40;;;;;;;19.87;59.11;99113.64;2169347;81;20976;-81
2022/07/25 05:00:15;;;;;;;9.90;3.50;;;;;;;20.12;59.85;99108.70;2169129;81;21008;-81
2022/07/25 05:03:15;;;;;;;3.83;3.10;;;;;;;20.51;59.79;99100.76;2169655;81;20929;-81
2022/07/25 05:06:16;;;;;;;3.77;3.17;;;;;;;20.53;58.88;99098.94;2169321;81;21352;-82
2022/07/25 05:09:16;;;;;;;15.58;3.30;;;;;;;19.99;59.33;99097.95;2169672;81;20981;-82
2022/07/25 05:12:17;;;;;;;4.22;3.30;;;;;;;19.92;60.38;99093.67;2169525;81;20925;-82
2022/07/25 05:15:17;;;;;;;49.40;7.55;;;;;;;19.78;61.13;99093.09;2169678;81;20917;-79
2022/07/25 05:18:17;;;;;;;14.53;4.10;;;;;;;19.97;62.78;99094.47;2169791;81;21008;-82
2022/07/25 05:21:18;;;;;;;7.03;3.60;;;;;;;20.24;63.49;99083.24;2169587;81;20949;-82
2022/07/25 05:24:18;;;;;;;15.55;3.42;;;;;;;20.97;63.80;99084.13;2169268;81;20972;-81
2022/07/25 05:27:19;;;;;;;11.22;3.90;;;;;;;21.42;61.10;99085.15;2169157;81;20954;-81
2022/07/25 05:30:19;;;;;;;43.48;24.45;;;;;;;21.60;57.81;99079.77;2169577;81;20921;-81
2022/07/25 05:33:20;;;;;;;27.95;17.67;;;;;;;21.58;57.75;99074.50;2170265;82;20894;-80
2022/07/25 05:36:20;;;;;;;33.60;13.00;;;;;;;21.60;54.13;99074.45;2170031;81;20941;-81
2022/07/25 05:39:20;;;;;;;29.32;8.28;;;;;;;21.74;52.64;99073.63;2169183;81;20940;-82
2022/07/25 05:42:21;;;;;;;28.00;8.98;;;;;;;21.91;50.67;99071.33;2169690;81;20937;-83
2022/07/25 05:45:24;;;;;;;7.15;3.80;;;;;;;21.95;49.49;99068.12;2169144;82;20980;-83
2022/07/25 05:48:24;;;;;;;4.78;2.92;;;;;;;22.07;54.29;99066.45;2161352;82;20964;-84
2022/07/25 05:51:24;;;;;;;3.87;3.05;;;;;;;22.21;54.66;99061.56;2170407;81;20972;-81
2022/07/25 05:54:24;;;;;;;8.65;2.87;;;;;;;22.26;55.78;99060.09;2169927;81;20921;-81
2022/07/25 05:57:25;;;;;;;4.60;2.67;;;;;;;22.43;55.95;99063.53;2170331;81;20980;-81
2022/07/25 06:00:25;;;;;;;9.68;3.55;;;;;;;22.62;56.09;99052.73;2171134;81;20992;-82
2022/07/25 06:03:26;;;;;;;4.00;2.50;;;;;;;22.76;55.67;99055.79;2172314;82;20906;-82
2022/07/25 06:06:26;;;;;;;2.70;2.50;;;;;;;22.91;55.24;99054.89;2171714;81;20933;-81
2022/07/25 06:09:26;;;;;;;40.23;5.42;;;;;;;23.06;54.12;99054.34;2171241;82;20945;-82
2022/07/25 06:12:27;;;;;;;6.40;2.92;;;;;;;23.17;54.25;99046.84;2171713;82;20893;-81
2022/07/25 06:15:27;;;;;;;4.35;2.60;;;;;;;23.38;54.29;99043.41;2171246;82;21249;-80
2022/07/25 06:18:28;;;;;;;2.83;2.40;;;;;;;23.59;53.79;99046.26;2171329;81;20937;-81
2022/07/25 06:21:28;;;;;;;6.10;5.25;;;;;;;23.72;53.05;99042.20;2170648;81;20980;-80
2022/07/25 06:24:28;;;;;;;7.50;3.47;;;;;;;23.89;52.96;99034.42;2170517;81;20925;-80
2022/07/25 06:27:29;;;;;;;6.70;2.67;;;;;;;24.09;52.70;99038.50;2171106;81;21325;-80
2022/07/25 06:30:29;;;;;;;5.78;2.42;;;;;;;24.33;51.08;99039.84;2171566;81;20949;-83
2022/07/25 06:33:30;;;;;;;2.22;2.02;;;;;;;24.37;49.98;99040.12;2171902;82;20921;-81
2022/07/25 06:36:30;;;;;;;2.98;2.60;;;;;;;24.38;49.90;99028.05;2171398;81;21324;-81
2022/07/25 06:39:30;;;;;;;5.30;2.20;;;;;;;24.42;49.29;99023.45;2170912;81;20910;-81
2022/07/25 06:42:32;;;;;;;4.67;2.45;;;;;;;24.53;49.27;99021.20;2170368;81;20932;-80
2022/07/25 06:45:31;;;;;;;2.83;1.82;;;;;;;24.65;47.77;99021.16;2171147;82;20913;-81
2022/07/25 06:48:32;;;;;;;13.13;3.58;;;;;;;24.83;48.89;99021.70;2170734;81;20973;-81
2022/07/25 06:51:32;;;;;;;34.70;3.80;;;;;;;25.06;48.35;99018.92;2170957;81;20936;-81
2022/07/25 06:54:32;;;;;;;11.40;2.42;;;;;;;25.31;47.47;99018.73;2171027;82;20953;-81
2022/07/25 06:57:33;;;;;;;8.75;3.08;;;;;;;25.47;46.43;99014.02;2170155;81;20976;-82
2022/07/25 07:00:33;;;;;;;6.50;2.20;;;;;;;25.58;45.07;99012.59;2169592;81;20913;-81
2022/07/25 07:03:36;;;;;;;3.30;2.30;;;;;;;25.59;45.84;99010.78;2169508;81;21517;-82
2022/07/25 07:06:36;;;;;;;2.37;1.80;;;;;;;25.71;45.98;99014.25;2170160;81;20902;-81
2022/07/25 07:09:34;;;;;;;6.30;2.40;;;;;;;25.82;45.45;99009.27;2170522;82;20952;-83
2022/07/25 07:12:35;;;;;;;3.87;2.67;;;;;;;25.83;44.99;99008.33;2170750;80;21318;-81
2022/07/25 07:15:35;;;;;;;4.90;2.30;;;;;;;25.98;44.71;99008.92;2170534;81;20961;-81
2022/07/25 07:18:36;;;;;;;4.78;2.20;;;;;;;26.17;44.41;99002.25;2170297;82;21001;-82
2022/07/25 07:21:36;;;;;;;2.62;2.15;;;;;;;26.40;44.04;98998.46;2171014;81;20984;-80
2022/07/25 07:24:36;;;;;;;4.05;2.27;;;;;;;26.47;43.33;98997.21;2170303;81;20948;-81
2022/07/25 07:27:37;;;;;;;18.65;3.87;;;;;;;26.51;42.43;98999.26;2170187;81;20944;-81
2022/07/25 07:30:37;;;;;;;11.75;2.80;;;;;;;26.65;42.35;99006.12;2169098;81;20956;-81
2022/07/25 07:33:38;;;;;;;8.28;2.72;;;;;;;26.89;42.00;98998.19;2168939;81;20917;-82
2022/07/25 07:36:38;;;;;;;294.10;23.07;;;;;;;27.12;41.29;98988.98;2169116;81;20921;-80
2022/07/25 07:39:39;;;;;;;11.80;3.33;;;;;;;27.02;41.12;98994.43;2169277;81;20968;-81
2022/07/25 07:42:39;;;;;;;2.47;2.20;;;;;;;26.91;41.09;98991.42;2169473;82;21325;-80
2022/07/25 07:45:39;;;;;;;12.40;2.60;;;;;;;26.94;40.43;98992.59;2168762;81;20929;-80
2022/07/25 07:48:40;;;;;;;2.35;1.80;;;;;;;26.85;39.72;98992.57;2168869;81;21032;-81
2022/07/25 07:51:40;;;;;;;4.47;2.17;;;;;;;26.94;40.17;98989.92;2169259;81;20905;-82
2022/07/25 07:57:59;;;;;;;2.00;1.90;;;;;;;27.06;39.45;98993.32;2168755;82;21011;-82
2022/07/25 08:01:00;;;;;;;2.75;2.00;;;;;;;27.13;38.56;98984.02;2168798;81;20937;-82
2022/07/25 08:04:21;;;;;;;4.75;2.00;;;;;;;27.22;39.08;98978.63;2169134;82;20961;-81
2022/07/25 08:07:05;;;;;;;3.17;1.95;;;;;;;27.34;39.38;98971.74;2116532;82;20890;-82
2022/07/25 08:10:05;;;;;;;4.08;2.10;;;;;;;27.40;38.84;98980.79;2169357;81;20909;-81
2022/07/25 08:13:05;;;;;;;2.45;2.00;;;;;;;27.32;38.77;98977.66;2170320;81;20897;-81
2022/07/25 08:16:06;;;;;;;2.92;1.85;;;;;;;27.37;39.09;98974.25;2169670;81;20931;-82
2022/07/25 08:19:06;;;;;;;2.90;1.62;;;;;;;27.52;38.72;98974.75;2169755;81;21000;-79
2022/07/25 08:22:09;;;;;;;2.08;1.87;;;;;;;27.71;37.43;98970.13;2169080;81;20976;-81
2022/07/25 08:25:09;;;;;;;4.15;1.75;;;;;;;27.86;37.18;98969.78;2159381;82;20897;-82
2022/07/25 08:28:10;;;;;;;2.37;2.00;;;;;;;28.04;36.83;98958.48;2169144;82;20921;-81
2022/07/25 08:31:10;;;;;;;2.27;2.02;;;;;;;28.18;37.36;98966.13;2168773;80;20921;-81
2022/07/25 08:34:11;;;;;;;5.67;3.02;;;;;;;28.35;37.11;98977.72;2169425;81;20961;-81
2022/07/25 08:37:11;;;;;;;6.90;2.80;;;;;;;28.80;36.19;98971.47;2169515;81;20904;-81
2022/07/25 08:40:11;;;;;;;7.58;2.47;;;;;;;28.80;36.19;98971.47;2169795;82;21345;-81
2022/07/25 08:43:12;;;;;;;2.00;1.75;;;;;;;28.97;35.44;98969.13;2169052;81;20965;-79
2022/07/25 08:46:12;;;;;;;3.02;1.77;;;;;;;28.94;34.33;98970.19;2168847;82;20980;-79
2022/07/25 08:49:13;;;;;;;4.83;2.10;;;;;;;28.69;35.57;98963.19;2168762;81;20980;-80
2022/07/25 08:52:13;;;;;;;3.17;2.10;;;;;;;28.81;35.37;98957.94;2167909;81;20965;-81
2022/07/25 08:55:14;;;;;;;2.50;1.87;;;;;;;29.07;35.23;98960.41;2167942;82;20957;-80
2022/07/25 08:58:14;;;;;;;1.82;1.72;;;;;;;29.08;34.84;98953.21;2170289;81;21016;-81
2022/07/25 09:01:14;;;;;;;4.92;1.80;;;;;;;28.95;35.12;98957.13;2171310;82;20956;-81
2022/07/25 09:04:15;;;;;;;3.98;1.90;;;;;;;29.00;35.95;98950.13;2171310;81;21597;-79
2022/07/25 09:07:15;;;;;;;1.90;1.80;;;;;;;29.23;34.65;98947.36;2172478;81;20881;-81
2022/07/25 09:10:16;;;;;;;5.30;2.15;;;;;;;29.28;34.63;98956.00;2171657;82;20913;-81
2022/07/25 09:13:16;;;;;;;3.05;2.05;;;;;;;29.37;34.70;98955.42;2172406;82;20921;-81
2022/07/25 09:16:16;;;;;;;2.50;1.72;;;;;;;29.58;33.73;98957.30;2173038;81;20901;-82
2022/07/25 09:19:17;;;;;;;1.92;1.60;;;;;;;29.62;33.57;98951.62;2172129;81;21012;-80
2022/07/25 09:22:17;;;;;;;6.53;2.17;;;;;;;29.68;32.95;98951.70;2172867;81;20983;-81
2022/07/25 09:25:17;;;;;;;4.35;1.80;;;;;;;29.67;33.65;98946.80;2172724;81;21276;-80
2022/07/25 09:28:18;;;;;;;2.30;2.10;;;;;;;30.10;33.08;98937.30;2172114;81;20897;-80
2022/07/25 09:31:18;;;;;;;2.25;1.60;;;;;;;30.10;33.08;98937.30;2171940;81;20913;-80
2022/07/25 09:34:19;;;;;;;2.30;2.10;;;;;;;30.19;32.54;98938.03;2172327;81;20925;-81
2022/07/25 09:37:19;;;;;;;2.08;1.87;;;;;;;30.26;32.81;98930.41;2171762;82;20922;-81
2022/07/25 09:40:20;;;;;;;3.58;2.02;;;;;;;30.20;32.09;98936.20;2172016;81;20976;-81
2022/07/25 09:43:20;;;;;;;2.90;2.20;;;;;;;29.87;32.57;98928.50;2172314;81;21321;-79
2022/07/25 09:46:21;;;;;;;5.90;2.95;;;;;;;29.88;33.00;98925.71;2172533;81;20941;-81
2022/07/25 09:49:21;;;;;;;11.00;2.50;;;;;;;29.99;33.33;98923.17;2172111;81;20945;-80
2022/07/25 09:52:21;;;;;;;3.30;1.90;;;;;;;30.17;32.58;98917.08;2172111;81;20948;-79
2022/07/25 09:55:22;;;;;;;3.45;2.00;;;;;;;30.42;32.57;98908.23;2172107;81;21143;-81
2022/07/25 09:58:22;;;;;;;5.40;2.20;;;;;;;30.38;32.34;98908.93;2172378;81;20965;-81
2022/07/25 10:01:22;;;;;;;2.37;1.90;;;;;;;30.37;32.23;98913.94;2171584;81;20976;-80
2022/07/25 10:04:23;;;;;;;2.17;1.85;;;;;;;30.56;31.50;98909.98;2171905;82;21342;-80
2022/07/25 10:07:23;;;;;;;2.72;1.70;;;;;;;30.38;31.28;98902.20;2171103;81;20913;-81
2022/07/25 10:10:24;;;;;;;2.70;1.70;;;;;;;30.15;31.55;98904.20;2170997;81;20901;-80
2022/07/25 10:13:24;;;;;;;4.62;1.70;;;;;;;29.89;32.15;98890.25;2170646;81;21623;-79
2022/07/25 10:16:24;;;;;;;11.25;2.80;;;;;;;30.20;31.97;98884.56;2169980;82;20921;-81
2022/07/25 10:19:25;;;;;;;3.47;1.70;;;;;;;30.20;31.97;98884.56;2170460;81;20957;-79
2022/07/25 10:22:25;;;;;;;2.08;1.87;;;;;;;30.43;31.79;98885.24;2171060;81;20992;-81
2022/07/25 10:25:26;;;;;;;2.08;1.50;;;;;;;30.57;30.87;98875.34;2171699;81;20965;-83
2022/07/25 10:28:26;;;;;;;4.33;2.20;;;;;;;30.67;31.08;98870.59;2172097;81;20917;-81
2022/07/25 10:31:27;;;;;;;4.10;1.60;;;;;;;30.69;30.79;98875.87;2172682;81;20917;-79
2022/07/25 10:34:27;;;;;;;5.37;2.25;;;;;;;30.56;30.57;98876.31;2173158;81;20917;-80
2022/07/25 10:37:28;;;;;;;1.98;1.87;;;;;;;30.40;30.23;98870.64;2173154;81;20929;-81
2022/07/25 10:40:28;;;;;;;1.80;1.70;;;;;;;30.36;30.44;98878.55;2171806;81;20992;-81
2022/07/25 10:43:28;;;;;;;2.20;1.80;;;;;;;30.49;30.58;98862.89;2171471;81;20996;-81
2022/07/25 10:46:29;;;;;;;18.77;3.02;;;;;;;30.72;30.48;98864.87;2171588;81;20945;-82
2022/07/25 10:49:29;;;;;;;2.25;1.87;;;;;;;30.61;30.07;98854.86;2171647;82;20961;-81
2022/07/25 10:52:30;;;;;;;7.12;2.12;;;;;;;30.60;30.29;98851.78;2172732;81;20965;-80
2022/07/25 10:55:30;;;;;;;2.15;1.60;;;;;;;30.66;29.58;98850.00;2172711;82;20897;-81
2022/07/25 10:58:30;;;;;;;4.78;1.65;;;;;;;30.68;29.21;98847.20;2172699;81;20957;-81
2022/07/25 11:01:31;;;;;;;2.58;2.10;;;;;;;30.62;28.69;98847.64;2172972;82;20984;-80
2022/07/25 11:04:31;;;;;;;2.40;1.90;;;;;;;30.70;29.24;98845.27;2172326;81;20936;-80
2022/07/25 11:07:34;;;;;;;2.33;2.12;;;;;;;30.91;29.02;98841.05;2172422;81;21132;-79
2022/07/25 11:10:32;;;;;;;1.67;1.57;;;;;;;31.02;28.46;98834.40;2172378;81;20873;-80
2022/07/25 11:13:32;;;;;;;2.22;2.02;;;;;;;31.15;28.32;98835.76;2172333;82;21016;-80
2022/07/25 11:16:33;;;;;;;6.35;1.65;;;;;;;31.22;28.27;98830.81;2171638;82;20929;-80
2022/07/25 11:19:37;;;;;;;1.50;1.22;;;;;;;31.30;28.07;98823.03;2172273;81;20929;-81
2022/07/25 11:22:35;;;;;;;13.62;2.60;;;;;;;31.31;27.82;98816.17;2162570;82;20976;-80
2022/07/25 11:25:36;;;;;;;19.17;4.08;;;;;;;31.30;27.42;98825.72;2170954;81;20937;-79
2022/07/25 11:28:36;;;;;;;11.40;5.70;;;;;;;31.28;27.19;98816.88;2170832;81;20968;-80
2022/07/25 11:31:37;;;;;;;5.95;4.58;;;;;;;31.27;27.24;98815.16;2171246;82;21020;-80
2022/07/25 11:34:37;;;;;;;2.27;2.08;;;;;;;31.30;27.21;98815.80;2170473;81;21344;-80
2022/07/25 11:37:37;;;;;;;1.65;1.55;;;;;;;31.45;26.80;98811.11;2170418;81;20941;-81
2022/07/25 11:40:38;;;;;;;4.40;1.40;;;;;;;31.41;26.26;98806.05;2170578;81;21035;-82
2022/07/25 11:43:38;;;;;;;1.47;1.37;;;;;;;31.30;27.07;98797.41;2171029;81;21351;-81
2022/07/25 11:46:39;;;;;;;2.02;1.82;;;;;;;31.46;26.34;98795.30;2171162;81;21013;-80
2022/07/25 11:49:39;;;;;;;1.65;1.55;;;;;;;31.56;26.44;98790.94;2171854;81;20968;-81
2022/07/25 11:52:41;;;;;;;1.65;1.47;;;;;;;31.58;25.62;98788.98;2171479;81;21327;-82
2022/07/25 11:55:41;;;;;;;1.40;1.30;;;;;;;31.62;25.70;98785.08;2171653;82;21016;-80
2022/07/25 11:58:40;;;;;;;3.02;1.45;;;;;;;31.57;25.46;98776.95;2169627;81;20913;-80
2022/07/25 12:01:41;;;;;;;36.25;3.77;;;;;;;31.57;26.12;98774.27;2169282;81;20976;-82
2022/07/25 12:04:41;;;;;;;5.70;1.95;;;;;;;31.74;26.43;98773.02;2169933;81;20989;-81
2022/07/25 12:07:43;;;;;;;5.08;2.00;;;;;;;31.82;25.68;98770.59;2169431;81;20925;-81
2022/07/25 12:10:42;;;;;;;4.10;1.65;;;;;;;31.78;24.98;98767.27;2168219;82;20881;-81
2022/07/25 12:13:42;;;;;;;2.85;1.62;;;;;;;31.77;25.77;98771.44;2167700;81;21738;-80
2022/07/25 12:16:43;;;;;;;1.30;1.30;;;;;;;31.77;25.36;98766.04;2167527;81;20948;-80
2022/07/25 12:19:43;;;;;;;7.92;2.25;;;;;;;31.77;26.02;98757.95;2167207;81;20969;-81
2022/07/25 12:22:43;;;;;;;6.53;1.80;;;;;;;31.85;25.42;98756.38;2167382;81;21103;-80
2022/07/25 12:25:44;;;;;;;3.58;1.62;;;;;;;31.75;25.38;98751.80;2166840;81;20948;-80
2022/07/25 12:28:44;;;;;;;4.42;1.62;;;;;;;31.67;25.57;98755.91;2166252;81;20952;-81
2022/07/25 12:31:45;;;;;;;1.77;1.60;;;;;;;31.50;25.32;98744.67;2166947;82;20886;-81
2022/07/25 12:34:45;;;;;;;3.15;1.55;;;;;;;31.60;25.60;98745.70;2166411;82;21637;-80
2022/07/25 12:37:46;;;;;;;3.80;1.50;;;;;;;31.74;25.45;98743.34;2166324;81;20997;-76
2022/07/25 12:40:46;;;;;;;11.45;3.00;;;;;;;31.84;25.81;98742.52;2166723;82;20941;-81
2022/07/25 12:43:46;;;;;;;2.90;1.40;;;;;;;31.93;25.92;98738.25;2167220;81;20958;-80
2022/07/25 12:46:47;;;;;;;11.30;2.20;;;;;;;32.03;25.40;98735.70;2167936;81;21717;-80
2022/07/25 12:49:47;;;;;;;4.72;2.05;;;;;;;31.92;25.12;98729.77;2167567;81;21016;-79
2022/07/25 12:52:47;;;;;;;2.87;1.40;;;;;;;31.85;25.08;98728.05;2167956;81;20926;-82
2022/07/25 12:55:48;;;;;;;6.85;1.72;;;;;;;31.83;24.96;98727.79;2167873;82;20978;-80
2022/07/25 12:58:49;;;;;;;4.28;1.82;;;;;;;31.72;25.31;98727.27;2170294;80;20933;-79
2022/07/25 13:01:49;;;;;;;1.62;1.52;;;;;;;31.81;25.00;98722.51;2167812;82;20984;-81
2022/07/25 13:04:49;;;;;;;5.60;1.77;;;;;;;31.66;24.91;98715.06;2167950;81;21556;-80
2022/07/25 13:07:49;;;;;;;4.72;1.40;;;;;;;31.64;25.33;98714.33;2167908;82;20929;-80
2022/07/25 13:10:50;;;;;;;2.92;1.47;;;;;;;31.73;25.07;98713.28;2168846;80;20969;-81
2022/07/25 13:13:50;;;;;;;2.85;1.60;;;;;;;31.65;25.24;98714.70;2169654;81;20957;-80
2022/07/25 13:16:51;;;;;;;3.17;1.40;;;;;;;31.71;25.59;98701.75;2169466;81;20981;-81
2022/07/25 13:19:51;;;;;;;2.83;1.30;;;;;;;31.88;25.41;98703.52;2169603;81;20953;-80
2022/07/25 13:22:51;;;;;;;3.47;1.70;;;;;;;31.99;25.89;98695.44;2169490;81;20953;-81
2022/07/25 13:25:52;;;;;;;1.50;1.40;;;;;;;32.13;25.44;98694.39;2168770;81;21301;-81
2022/07/25 13:28:52;;;;;;;3.30;1.80;;;;;;;32.22;25.35;98692.31;2168709;81;20977;-78
2022/07/25 13:31:53;;;;;;;3.37;1.30;;;;;;;32.10;25.07;98683.83;2169496;82;20924;-82
2022/07/25 13:34:53;;;;;;;2.55;1.65;;;;;;;32.09;25.41;98687.51;2169501;81;21608;-81
2022/07/25 13:37:54;;;;;;;2.12;1.40;;;;;;;32.09;25.03;98675.36;2168082;81;21348;-81
2022/07/25 13:40:56;;;;;;;4.12;1.35;;;;;;;32.08;24.92;98670.94;2169321;81;20984;-80
2022/07/25 13:43:54;;;;;;;5.65;1.40;;;;;;;31.96;25.26;98674.08;2170078;82;20905;-81
2022/07/25 13:46:56;;;;;;;1.50;1.40;;;;;;;32.04;24.50;98666.73;2170120;81;20905;-80
2022/07/25 13:49:55;;;;;;;1.67;1.50;;;;;;;31.93;25.25;98668.92;2169342;81;21396;-79
2022/07/25 13:52:56;;;;;;;21.17;3.90;;;;;;;31.97;24.95;98658.25;2170988;82;20953;-81
2022/07/25 13:55:57;;;;;;;1.47;1.37;;;;;;;32.06;25.35;98657.16;2170996;81;20929;-81
2022/07/25 13:58:56;;;;;;;1.50;1.40;;;;;;;32.13;25.06;98655.73;2172304;81;21167;-82
2022/07/25 14:01:57;;;;;;;1.65;1.55;;;;;;;32.22;24.73;98646.41;2173734;81;20952;-81
2022/07/25 14:04:57;;;;;;;2.10;1.35;;;;;;;32.17;24.66;98647.27;2173432;81;20953;-81
2022/07/25 14:07:57;;;;;;;2.58;1.50;;;;;;;32.03;25.13;98635.31;2172631;82;21332;-80
2022/07/25 14:10:58;;;;;;;7.58;2.42;;;;;;;32.14;24.95;98629.95;2172038;81;20965;-81
2022/07/25 14:13:58;;;;;;;4.97;1.62;;;;;;;32.27;25.27;98625.32;2173473;81;20956;-80